• Join FlightAware (Why Join?)
  • Login
  • US Flag 
10:35PM EDT


 

Airport Tracker/Info


-or-


 

Live Flight TrackerFlight Track Log ✈ N510SR ✈ 01-Oct-2013 ✈ KNEW - KTEB

Flight Track Log - Related Links

Times and Time Zones

All times are in EDT time to prevent confusion due to time zone crossing. See the N510SR flight status page for this flight to view local times or setup timezone preferences in your user account.

Time Position Orientation Groundspeed Altitude Reporting Facility
EDT Latitude Longitude Course Direction KTS MPH feet Rate Location/Type
07:28AM 30.0611 -90.0319 58° Northeast 171 197 600  Level Houston Center
07:29AM 30.1067 -90.0228 10° North 208 239 2,400 1,800 Climbing Houston Center
07:30AM 30.1319 -89.9992 39° Northeast 242 278 3,300 2,280 Climbing Houston Center
07:31AM 30.1850 -89.9442 42° Northeast 251 289 6,200 2,820 Climbing Houston Center
07:32AM 30.2425 -89.8839 42° Northeast 270 311 9,100 2,040 Climbing Houston Center
07:33AM 30.3058 -89.8150 43° Northeast 303 349 10,400 1,800 Climbing Houston Center
07:34AM 30.4235 -89.5724 58° Northeast  Level Estimated
07:34AM 30.3886 -89.7269 43° Northeast 350 403 12,800  Level Houston Center
07:35AM 30.4650 -89.6436 43° Northeast 374 430 14,900 2,040 Climbing Houston Center
07:36AM 30.5436 -89.5564 44° Northeast 387 445 17,000 1,860 Climbing Houston Center
07:37AM 30.6236 -89.4669 44° Northeast 397 457 18,700 1,560 Climbing Houston Center
07:38AM 30.6942 -89.3606 52° Northeast 420 483 20,200 1,440 Climbing Houston Center
07:39AM 30.7550 -89.2417 59° Northeast 427 491 21,700 1,320 Climbing Houston Center
07:40AM 30.8181 -89.1194 59° Northeast 437 503 23,000 1,320 Climbing Houston Center
07:41AM 30.8964 -88.9692 59° Northeast 451 519 24,500 1,440 Climbing Houston Center
07:42AM 30.9586 -88.8467 59° Northeast 453 521 26,000 1,320 Climbing Houston Center
07:43AM 31.0250 -88.7186 59° Northeast 460 529 27,200 1,080 Climbing Houston Center
07:44AM 31.0942 -88.5847 59° Northeast 467 537 28,300 1,320 Climbing Houston Center
07:45AM 31.1611 -88.4542 59° Northeast 470 541 29,900 1,440 Climbing Houston Center
07:46AM 31.2272 -88.3247 59° Northeast 466 536 31,300 1,380 Climbing Houston Center
07:47AM 31.2967 -88.1933 58° Northeast 466 536 32,800 1,320 Climbing Houston Center
07:48AM 31.3631 -88.0622 59° Northeast 464 534 34,000 1,200 Climbing Houston Center
07:49AM 31.4272 -87.9319 60° Northeast 461 531 35,300 1,020 Climbing Houston Center
07:50AM 31.4933 -87.8014 59° Northeast 467 537 36,100 960 Climbing Houston Center
07:51AM 31.5597 -87.6681 60° Northeast 472 543 37,300 1,320 Climbing Houston Center
07:52AM 31.6264 -87.5336 60° Northeast 476 548 38,800 1,320 Climbing Houston Center
07:52AM 31.6725 -87.4500 57° Northeast 462 532 39,400 1,020 Climbing Atlanta Center
07:53AM 31.7253 -87.3447 59° Northeast 462 532 40,400 840 Climbing Atlanta Center
07:54AM 31.7917 -87.2006 62° Northeast 457 526 41,100 300 Climbing Atlanta Center
07:55AM 31.8600 -87.0636 60° Northeast 462 532 41,100  Level Atlanta Center
07:56AM 31.9300 -86.9239 59° Northeast 474 545 41,100  Level Atlanta Center
07:57AM 31.9981 -86.7817 61° Northeast 485 558 41,100  Level Atlanta Center
07:58AM 32.0825 -86.6297 57° Northeast 497 572 41,100  Level Atlanta Center
07:59AM 32.1503 -86.4869 61° Northeast 497 572 41,100  Level Atlanta Center
08:00AM 32.2089 -86.3658 60° Northeast 485 558 41,100  Level Atlanta Center
08:01AM 32.2931 -86.2133 57° Northeast 485 558 41,100  Level Atlanta Center
08:02AM 32.3808 -86.0850 51° Northeast 492 566 41,100  Level Atlanta Center
08:03AM 32.4600 -85.9639 52° Northeast 492 566 41,100  Level Atlanta Center
08:04AM 32.5517 -85.8328 50° Northeast 492 566 41,100  Level Atlanta Center
08:05AM 32.6350 -85.7086 51° Northeast 498 573 41,100  Level Atlanta Center
08:06AM 32.7139 -85.5819 53° Northeast 485 558 41,100  Level Atlanta Center
08:07AM 32.8008 -85.4572 50° Northeast 485 558 41,100  Level Atlanta Center
08:08AM 32.8817 -85.3350 52° Northeast 485 558 41,100  Level Atlanta Center
08:09AM 32.9600 -85.2097 53° Northeast 485 558 41,100  Level Atlanta Center
08:10AM 33.0361 -85.1067 49° Northeast 468 539 41,100  Level Atlanta Center
08:11AM 33.1144 -84.9836 53° Northeast 467 537 41,100  Level Atlanta Center
08:12AM 33.1989 -84.8556 52° Northeast 473 544 41,100  Level Atlanta Center
08:13AM 33.2789 -84.7319 52° Northeast 473 544 41,100  Level Atlanta Center
08:14AM 33.3567 -84.6083 53° Northeast 473 544 41,100  Level Atlanta Center
08:15AM 33.4428 -84.4719 53° Northeast 468 539 41,100  Level Atlanta Center
08:16AM 33.5225 -84.3503 52° Northeast 468 539 41,100  Level Atlanta Center
08:17AM 33.5853 -84.2483 54° Northeast 468 539 41,100  Level Atlanta Center
08:18AM 33.6814 -84.1011 52° Northeast 463 533 41,100  Level Atlanta Center
08:19AM 33.7608 -83.9764 53° Northeast 463 533 41,100  Level Atlanta Center
08:20AM 33.8400 -83.8536 52° Northeast 463 533 41,100  Level Atlanta Center
08:21AM 33.9169 -83.7333 52° Northeast 456 525 41,100  Level Atlanta Center
08:22AM 33.9958 -83.6078 53° Northeast 456 525 41,100  Level Atlanta Center
08:23AM 34.0728 -83.4869 52° Northeast 456 525 41,100  Level Atlanta Center
08:24AM 34.1492 -83.3636 53° Northeast 456 525 41,100  Level Atlanta Center
08:25AM 34.2278 -83.2422 52° Northeast 456 525 41,100  Level Atlanta Center
08:26AM 34.3083 -83.1208 51° Northeast 450 518 41,100  Level Atlanta Center
08:27AM 34.3847 -83.0017 52° Northeast 450 518 41,100  Level Atlanta Center
08:28AM 34.4631 -82.8825 51° Northeast 450 518 41,100  Level Atlanta Center
08:29AM 34.5431 -82.7628 51° Northeast 450 518 41,100  Level Atlanta Center
08:30AM 34.6086 -82.6533 54° Northeast 450 518 41,100  Level Atlanta Center
08:31AM 34.6908 -82.5381 49° Northeast 457 526 41,100  Level Atlanta Center
08:32AM 34.7667 -82.4181 52° Northeast 450 518 41,100  Level Atlanta Center
08:33AM 34.8422 -82.3000 52° Northeast 450 518 41,100  Level Atlanta Center
08:34AM 34.9281 -82.1742 50° Northeast 445 512 41,100  Level Atlanta Center
08:35AM 35.0011 -82.0558 53° Northeast 440 506 41,100  Level Atlanta Center
08:36AM 35.0764 -81.9347 53° Northeast 435 501 41,100  Level Atlanta Center
08:37AM 35.1514 -81.8161 52° Northeast 442 509 41,100  Level Atlanta Center
08:38AM 35.2244 -81.6997 52° Northeast 442 509 41,100  Level Atlanta Center
08:39AM 35.2972 -81.5831 53° Northeast 437 503 41,100  Level Atlanta Center
08:40AM 35.3719 -81.4636 52° Northeast 437 503 41,100  Level Atlanta Center
08:41AM 35.4406 -81.3494 54° Northeast 432 497 41,100  Level Atlanta Center
08:42AM 35.5133 -81.2425 50° Northeast 437 503 41,100  Level Atlanta Center
08:43AM 35.5814 -81.1175 56° Northeast 444 511 41,100  Level Atlanta Center
08:44AM 35.6678 -80.9817 52° Northeast 449 517 41,100  Level Atlanta Center
08:45AM 35.7417 -80.8611 53° Northeast 443 510 41,100  Level Atlanta Center
08:46AM 35.8139 -80.7431 53° Northeast 438 504 41,100  Level Atlanta Center
08:47AM 35.8878 -80.6247 52° Northeast 443 510 41,100  Level Atlanta Center
08:48AM 35.9614 -80.5036 53° Northeast 443 510 41,100  Level Atlanta Center
08:49AM 36.0269 -80.3928 54° Northeast 443 510 41,100  Level Atlanta Center
08:50AM 36.1028 -80.2714 52° Northeast 443 510 41,100  Level Atlanta Center
08:52AM 36.2200 -80.0822 52° Northeast 420 483 41,100  Level Washington Center
08:53AM 36.2956 -79.9578 53° Northeast 421 484 41,100  Level Washington Center
08:54AM 36.3733 -79.8228 54° Northeast 427 491 41,100  Level Washington Center
08:55AM 36.4442 -79.7103 52° Northeast 440 506 41,100  Level Washington Center
08:56AM 36.5172 -79.5850 54° Northeast 440 506 41,100  Level Washington Center
08:57AM 36.5878 -79.4669 53° Northeast 440 506 41,100  Level Washington Center
08:58AM 36.6675 -79.3286 54° Northeast 445 512 41,100  Level Washington Center
08:59AM 36.7314 -79.2175 54° Northeast 440 506 41,100  Level Washington Center
09:00AM 36.8106 -79.0811 54° Northeast 440 506 41,100  Level Washington Center
09:01AM 36.8764 -78.9672 54° Northeast 440 506 41,100  Level Washington Center
09:02AM 36.9572 -78.8306 53° Northeast 440 506 41,100  Level Washington Center
09:03AM 37.0208 -78.7186 55° Northeast 440 506 41,100  Level Washington Center
09:04AM 37.1014 -78.5814 54° Northeast 440 506 41,100  Level Washington Center
09:05AM 37.1647 -78.4667 55° Northeast 440 506 41,100  Level Washington Center
09:06AM 37.2450 -78.3314 53° Northeast 440 506 41,100  Level Washington Center
09:07AM 37.3103 -78.2161 55° Northeast 445 512 41,100  Level Washington Center
09:08AM 37.3897 -78.1064 48° Northeast 435 501 41,100  Level Washington Center
09:09AM 37.4961 -78.0053 37° Northeast 430 495 41,100  Level Washington Center
09:10AM 37.5961 -77.9114 37° Northeast 436 502 41,100  Level Washington Center
09:11AM 37.6725 -77.8403 36° Northeast 436 502 41,100  Level Washington Center
09:12AM 37.7806 -77.7411 36° Northeast 436 502 41,100  Level Washington Center
09:13AM 37.8803 -77.6492 36° Northeast 436 502 41,100  Level Washington Center
09:14AM 37.9778 -77.5569 37° Northeast 441 507 41,100 -840 Level Washington Center
09:15AM 38.0836 -77.4569 37° Northeast 441 507 39,500 -1,740 Descending Washington Center
09:16AM 38.1767 -77.3694 36° Northeast 430 495 37,700 -2,520 Descending Washington Center
09:17AM 38.2719 -77.2817 36° Northeast 424 488 34,500 -3,660 Descending Washington Center
09:18AM 38.3647 -77.1911 37° Northeast 419 482 30,400 -2,700 Descending Washington Center
09:19AM 38.4661 -77.0978 36° Northeast 419 482 29,100 -660 Descending Washington Center
09:20AM 38.5653 -77.0017 37° Northeast 431 496 29,100  Level Washington Center
09:21AM 38.6664 -76.9053 37° Northeast 441 507 29,100  Level Washington Center
09:22AM 38.7633 -76.8136 36° Northeast 447 514 29,100  Level Washington Center
09:23AM 38.8603 -76.7194 37° Northeast 442 509 29,100  Level Washington Center
09:24AM 38.9589 -76.6247 37° Northeast 442 509 29,100  Level Washington Center
09:25AM 39.0556 -76.5297 37° Northeast 442 509 29,100 -600 Level Washington Center
09:26AM 39.1500 -76.4372 37° Northeast 442 509 28,000 -1,740 Descending Washington Center
09:27AM 39.2467 -76.3447 37° Northeast 442 509 25,700 -1,980 Descending Washington Center
09:28AM 39.3367 -76.2408 42° Northeast 436 502 24,100 -1,200 Descending Washington Center
09:29AM 39.4206 -76.1317 45° Northeast 426 490 23,400 -1,560 Descending Washington Center
09:30AM 39.5003 -76.0192 47° Northeast 421 484 21,100 -2,340 Descending Washington Center
09:31AM 39.5797 -75.9064 48° Northeast 421 484 18,800 -2,280 Descending Washington Center
09:33AM 39.7333 -75.6833 48° Northeast 386 444 14,300 -2,040 Descending Philadelphia TRACON
09:34AM 39.8000 -75.6000 44° Northeast 385 443 13,000 -720 Descending Philadelphia TRACON
09:35AM 39.8833 -75.5167 37° Northeast 386 444 13,000  Level Philadelphia TRACON
09:36AM 39.9667 -75.4333 37° Northeast 385 443 13,000  Level Philadelphia TRACON
09:37AM 40.0667 -75.3500 33° Northeast 384 442 13,000  Level Philadelphia TRACON
09:38AM 40.1500 -75.2667 37° Northeast 380 437 13,000 -780 Level Philadelphia TRACON
09:39AM 40.2333 -75.2000 31° Northeast 316 364 11,500 -1,620 Descending Philadelphia TRACON
09:41AM 40.3500 -75.0667 41° Northeast 296 341 8,300 -1,500 Descending New York TRACON
09:42AM 40.4167 -74.9833 44° Northeast 280 322 7,100 -600 Descending New York TRACON
09:43AM 40.4667 -74.9167 45° Northeast 275 316 7,200 -720 Climbing New York TRACON
09:44AM 40.5167 -74.8333 52° Northeast 283 326 5,700 -1,380 Descending New York TRACON
09:45AM 40.5667 -74.7667 45° Northeast 270 311 4,600 -900 Descending New York TRACON
09:46AM 40.6167 -74.7167 37° Northeast 262 302 4,100 -300 Descending New York TRACON
09:47AM 40.6833 -74.6667 30° Northeast 265 305 4,100  Level New York TRACON
09:48AM 40.7500 -74.6167 30° Northeast 266 306 4,100 -300 Level New York TRACON
09:49AM 40.8000 -74.5500 45° Northeast 261 300 3,500 -540 Descending New York TRACON
09:50AM 40.8333 -74.4833 57° Northeast 262 302 3,100 -240 Descending New York TRACON
09:51AM 40.8833 -74.4000 52° Northeast 261 300 3,100 -60 Level New York TRACON
09:52AM 40.9167 -74.3333 56° Northeast 254 292 3,000 -60 Descending New York TRACON
09:53AM 40.9500 -74.2667 56° Northeast 217 250 3,000 -240 Level New York TRACON
09:54AM 40.9667 -74.2000 72° East 187 215 2,600 -480 Descending New York TRACON
09:55AM 40.9667 -74.1333 90° East 188 216 2,200 -480 Descending New York TRACON
09:56AM 40.9333 -74.0833 131° Southeast 182 209 1,700 -600 Descending New York TRACON
09:57AM 40.9000 -74.0500 143° Southeast 171 197 1,100 -600 Descending New York TRACON